Time;durP1;ratioP1;P1;durP2;ratioP2;P2;SDS_P1;SDS_P2;PMS_P1;PMS_P2;Temp;Humidity;BMP_temperature;BMP_pressure;BME280_temperature;BME280_humidity;BME280_pressure;Samples;Min_cycle;Max_cycle;Signal;HPM_P1;HPM_P2
2022/03/21 00:00:40;;;;;;;37.53;20.63;;;6.30;44.60;;;;;;5068583;28;20616;-67
2022/03/21 00:03:07;;;;;;;40.03;22.37;;;6.30;44.60;;;;;;5067822;28;20749;-66
2022/03/21 00:05:34;;;;;;;35.03;20.90;;;6.30;44.60;;;;;;5075290;28;20635;-66
2022/03/21 00:08:02;;;;;;;38.77;21.43;;;6.30;44.80;;;;;;5077365;28;20709;-68
2022/03/21 00:10:31;;;;;;;39.10;21.50;;;6.20;44.90;;;;;;5076488;28;20205;-67
2022/03/21 00:13:00;;;;;;;35.80;20.70;;;6.20;45.00;;;;;;5078313;28;20235;-66
2022/03/21 00:15:28;;;;;;;37.47;22.97;;;6.20;45.10;;;;;;5075170;28;20201;-67
2022/03/21 00:17:56;;;;;;;39.43;22.77;;;6.20;45.20;;;;;;5065608;28;20236;-66
2022/03/21 00:20:23;;;;;;;38.53;23.13;;;6.20;45.30;;;;;;5073370;28;20208;-67
2022/03/21 00:22:52;;;;;;;38.60;22.43;;;6.20;45.40;;;;;;5070375;28;20706;-68
2022/03/21 00:25:20;;;;;;;41.07;23.17;;;6.20;45.50;;;;;;5073166;28;20223;-68
2022/03/21 00:27:48;;;;;;;40.10;22.27;;;6.20;45.60;;;;;;5076081;28;20334;-67
2022/03/21 00:30:15;;;;;;;43.57;24.43;;;6.20;45.70;;;;;;5074360;28;20243;-68
2022/03/21 00:32:43;;;;;;;34.67;21.43;;;6.20;45.90;;;;;;5077360;28;20259;-67
2022/03/21 00:35:12;;;;;;;38.50;22.03;;;6.10;46.00;;;;;;5074633;28;20276;-67
2022/03/21 00:37:40;;;;;;;37.83;22.60;;;6.10;46.00;;;;;;5075961;28;20224;-67
2022/03/21 00:40:08;;;;;;;37.30;21.27;;;6.10;46.10;;;;;;5070944;28;20210;-67
2022/03/21 00:42:37;;;;;;;38.60;21.97;;;6.10;46.10;;;;;;5062800;28;20280;-67
2022/03/21 00:45:09;;;;;;;33.47;20.83;;;6.10;46.10;;;;;;5065937;28;20575;-67
2022/03/21 00:47:36;;;;;;;40.00;21.70;;;6.10;46.00;;;;;;5069795;28;20228;-67
2022/03/21 00:50:04;;;;;;;37.87;21.67;;;6.10;46.00;;;;;;5072558;28;20214;-67
2022/03/21 00:52:32;;;;;;;38.67;20.90;;;6.10;45.80;;;;;;5070450;28;20209;-69
2022/03/21 00:55:00;;;;;;;39.37;21.50;;;6.10;45.80;;;;;;5076864;28;20216;-68
2022/03/21 00:57:27;;;;;;;33.57;20.30;;;6.10;46.00;;;;;;5075495;28;20271;-68
2022/03/21 00:59:54;;;;;;;34.73;20.30;;;6.00;46.20;;;;;;5072886;28;20237;-68
2022/03/21 01:02:22;;;;;;;32.13;21.03;;;6.10;46.40;;;;;;5076430;28;20236;-68
2022/03/21 01:04:49;;;;;;;39.03;21.70;;;5.90;46.20;;;;;;5076671;28;20258;-68
2022/03/21 01:07:16;;;;;;;35.50;21.00;;;5.90;46.30;;;;;;5071907;28;20664;-69
2022/03/21 01:09:43;;;;;;;36.43;20.90;;;5.90;46.40;;;;;;5065430;28;20293;-69
2022/03/21 01:12:10;;;;;;;39.13;21.97;;;5.80;47.10;;;;;;5074524;28;20255;-68
2022/03/21 01:14:37;;;;;;;36.80;21.53;;;5.80;46.70;;;;;;5076185;28;20251;-68
2022/03/21 01:17:04;;;;;;;38.77;22.37;;;5.80;46.80;;;;;;5075928;28;20205;-69
2022/03/21 01:19:33;;;;;;;35.40;21.57;;;5.70;46.80;;;;;;5076859;28;20213;-68
2022/03/21 01:22:00;;;;;;;38.17;21.73;;;5.70;46.90;;;;;;5077624;28;20229;-68
2022/03/21 01:24:27;;;;;;;36.43;21.20;;;5.70;46.90;;;;;;5075615;28;20210;-68
2022/03/21 01:26:54;;;;;;;34.13;20.87;;;5.70;47.00;;;;;;5059108;28;20272;-68
2022/03/21 01:29:21;;;;;;;35.83;21.23;;;5.70;47.00;;;;;;5074069;28;20201;-66
2022/03/21 01:31:48;;;;;;;36.80;22.03;;;5.70;47.00;;;;;;5075752;28;20209;-68
2022/03/21 01:34:15;;;;;;;34.77;21.00;;;5.60;46.90;;;;;;5060942;28;20205;-68
2022/03/21 01:36:44;;;;;;;36.83;21.67;;;5.70;47.10;;;;;;5070628;28;20201;-68
2022/03/21 01:39:11;;;;;;;36.80;22.63;;;5.70;47.50;;;;;;5075876;28;20270;-68
2022/03/21 01:41:38;;;;;;;38.80;23.50;;;5.60;47.50;;;;;;5060437;28;20225;-68
2022/03/21 01:44:08;;;;;;;39.67;22.43;;;5.60;47.50;;;;;;5075280;28;20248;-68
2022/03/21 01:46:37;;;;;;;37.17;21.90;;;5.60;47.60;;;;;;5075180;28;20520;-67
2022/03/21 01:49:06;;;;;;;41.50;21.77;;;5.60;47.70;;;;;;5064255;28;20201;-68
2022/03/21 01:51:33;;;;;;;34.93;19.40;;;5.60;47.90;;;;;;5076405;28;20641;-67
2022/03/21 01:56:47;;;;;;;32.27;19.87;;;5.60;47.50;;;;;;5074962;28;20350;-67
2022/03/21 01:59:15;;;;;;;32.53;19.53;;;5.60;47.60;;;;;;5074645;28;20284;-68
2022/03/21 02:01:43;;;;;;;31.63;18.47;;;5.60;47.60;;;;;;5065319;28;20205;-67
2022/03/21 02:04:10;;;;;;;30.67;18.23;;;5.60;47.60;;;;;;5075859;28;20221;-67
2022/03/21 02:06:38;;;;;;;34.50;21.57;;;5.50;48.00;;;;;;5075451;28;20214;-70
2022/03/21 02:09:08;;;;;;;35.07;21.20;;;5.50;47.40;;;;;;5069073;28;20288;-74
2022/03/21 02:11:36;;;;;;;37.30;22.67;;;5.50;47.80;;;;;;5067584;28;20209;-70
2022/03/21 02:14:05;;;;;;;34.93;21.50;;;5.50;47.80;;;;;;5060184;28;21047;-70
2022/03/21 02:16:34;;;;;;;37.63;22.30;;;5.50;47.90;;;;;;5073676;28;20252;-68
2022/03/21 02:19:08;;;;;;;35.17;20.30;;;5.40;48.00;;;;;;5069627;28;20562;-69
2022/03/21 02:21:44;;;;;;;32.90;20.43;;;5.40;48.10;;;;;;5073335;28;20286;-69
2022/03/21 02:24:25;;;;;;;34.33;19.63;;;5.40;48.10;;;;;;5072041;28;20220;-69
2022/03/21 02:26:55;;;;;;;26.90;17.13;;;5.40;48.00;;;;;;5067728;28;20205;-69
2022/03/21 02:29:25;;;;;;;24.30;15.47;;;5.40;47.90;;;;;;5072406;28;20197;-69
2022/03/21 02:31:53;;;;;;;29.67;17.70;;;5.50;48.20;;;;;;5073643;28;20579;-70
2022/03/21 02:34:23;;;;;;;28.93;16.23;;;5.40;47.40;;;;;;5074667;28;20202;-68
2022/03/21 02:36:53;;;;;;;24.27;15.70;;;5.40;47.20;;;;;;5064651;28;20297;-68
2022/03/21 02:39:20;;;;;;;24.93;15.77;;;5.40;47.10;;;;;;5071150;28;20239;-68
2022/03/21 02:41:47;;;;;;;26.80;16.53;;;5.40;47.00;;;;;;5074015;28;20255;-68
2022/03/21 02:44:15;;;;;;;29.07;15.80;;;5.40;47.00;;;;;;5065790;28;20220;-67
2022/03/21 02:46:42;;;;;;;28.77;16.90;;;5.40;47.00;;;;;;5067380;28;20223;-67
2022/03/21 02:49:09;;;;;;;27.37;15.83;;;5.40;47.10;;;;;;5072888;28;20208;-68
2022/03/21 02:51:40;;;;;;;29.37;16.70;;;5.40;47.10;;;;;;5060805;28;20296;-68
2022/03/21 02:54:07;;;;;;;26.70;17.33;;;5.40;47.10;;;;;;5075569;28;20208;-68
2022/03/21 02:56:34;;;;;;;33.57;18.77;;;5.40;47.00;;;;;;5073455;28;20283;-68
2022/03/21 02:59:01;;;;;;;31.93;18.80;;;5.40;47.30;;;;;;5073900;28;20297;-68
2022/03/21 03:01:29;;;;;;;35.33;20.40;;;5.40;47.50;;;;;;5064415;28;20592;-68
2022/03/21 03:03:56;;;;;;;37.30;21.60;;;5.40;47.60;;;;;;5064348;28;20224;-68
2022/03/21 03:06:23;;;;;;;36.30;20.93;;;5.40;48.10;;;;;;5075996;28;20232;-69
2022/03/21 03:08:50;;;;;;;35.97;20.97;;;5.30;48.10;;;;;;5076478;28;20247;-69
2022/03/21 03:11:17;;;;;;;42.03;23.80;;;5.20;48.10;;;;;;5077514;28;20201;-67
2022/03/21 03:13:44;;;;;;;52.77;26.70;;;5.20;48.30;;;;;;5077747;28;20208;-68
2022/03/21 03:16:11;;;;;;;50.97;27.47;;;5.20;48.10;;;;;;5078133;28;20237;-67
2022/03/21 03:18:44;;;;;;;50.23;27.70;;;5.10;48.00;;;;;;5078098;28;20241;-68
2022/03/21 03:21:13;;;;;;;46.63;26.43;;;5.00;47.90;;;;;;5062989;28;20237;-67
2022/03/21 03:23:43;;;;;;;48.57;27.07;;;5.00;47.90;;;;;;5064111;28;20682;-67
2022/03/21 03:26:09;;;;;;;48.10;27.73;;;4.90;47.80;;;;;;5077669;28;20201;-67
2022/03/21 03:28:38;;;;;;;54.40;29.63;;;4.90;48.00;;;;;;5077342;28;20295;-67
2022/03/21 03:31:05;;;;;;;52.20;28.63;;;4.90;48.20;;;;;;5071781;28;20205;-67
2022/03/21 03:33:33;;;;;;;52.07;29.63;;;4.80;48.50;;;;;;5077221;28;20244;-67
2022/03/21 03:36:01;;;;;;;53.17;30.17;;;4.80;48.70;;;;;;5075336;28;20228;-67
2022/03/21 03:38:28;;;;;;;54.43;30.00;;;4.80;48.90;;;;;;5076632;28;20382;-68
2022/03/21 03:40:55;;;;;;;53.43;31.30;;;4.70;49.10;;;;;;5078105;28;20228;-68
2022/03/21 03:43:22;;;;;;;59.70;32.97;;;4.70;49.30;;;;;;5059383;28;20251;-68
2022/03/21 03:45:52;;;;;;;59.87;34.40;;;4.70;49.30;;;;;;5068466;28;20346;-69
2022/03/21 03:48:19;;;;;;;61.40;33.97;;;4.60;49.40;;;;;;5075187;28;20201;-69
2022/03/21 03:50:46;;;;;;;65.87;36.33;;;4.60;49.50;;;;;;5078273;28;20316;-68
2022/03/21 03:53:15;;;;;;;69.37;36.33;;;4.60;49.70;;;;;;5077022;28;20236;-69
2022/03/21 03:55:42;;;;;;;65.40;37.30;;;4.50;49.70;;;;;;5076914;28;20296;-68
2022/03/21 03:58:09;;;;;;;74.70;36.83;;;4.50;49.80;;;;;;5066499;28;20224;-69
2022/03/21 04:00:36;;;;;;;61.30;35.57;;;4.40;49.90;;;;;;5070371;28;20255;-68
2022/03/21 04:05:58;;;;;;;59.80;34.00;;;4.30;50.20;;;;;;5054167;28;20206;-68
2022/03/21 04:08:27;;;;;;;64.23;35.00;;;4.30;50.20;;;;;;5066052;28;20625;-69
2022/03/21 04:10:54;;;;;;;70.83;35.97;;;4.30;50.20;;;;;;5077626;28;20554;-69
2022/03/21 04:13:20;;;;;;;58.37;33.30;;;4.30;50.20;;;;;;5077298;28;20292;-69
2022/03/21 04:15:47;;;;;;;59.87;34.57;;;4.30;50.20;;;;;;5066326;28;20235;-69
2022/03/21 04:18:14;;;;;;;61.70;34.93;;;4.30;50.20;;;;;;5072837;28;20272;-68
2022/03/21 04:20:42;;;;;;;61.17;32.97;;;4.30;50.20;;;;;;5076768;28;20286;-68
2022/03/21 04:23:11;;;;;;;51.63;30.53;;;4.30;50.20;;;;;;5067393;28;20234;-68
2022/03/21 04:25:39;;;;;;;53.07;30.97;;;4.40;50.10;;;;;;5072905;28;20227;-69
2022/03/21 04:28:10;;;;;;;53.40;29.87;;;4.40;49.90;;;;;;5076133;28;20233;-67
2022/03/21 04:30:37;;;;;;;54.80;30.53;;;4.40;49.90;;;;;;5073907;28;20612;-68
2022/03/21 04:33:05;;;;;;;54.67;30.10;;;4.40;49.90;;;;;;5072232;28;20205;-68
2022/03/21 04:35:32;;;;;;;51.00;29.20;;;4.30;49.90;;;;;;5075453;28;20631;-68
2022/03/21 04:37:59;;;;;;;51.77;28.43;;;4.40;49.80;;;;;;5074491;28;20486;-68
2022/03/21 04:40:26;;;;;;;55.63;30.13;;;4.40;49.70;;;;;;5065339;28;20689;-68
2022/03/21 04:42:54;;;;;;;53.77;31.23;;;4.40;49.60;;;;;;5071288;28;20316;-68
2022/03/21 04:45:22;;;;;;;55.43;30.67;;;4.40;50.20;;;;;;5075934;28;20205;-68
2022/03/21 04:47:49;;;;;;;49.57;29.27;;;4.40;49.70;;;;;;5075478;28;20213;-69
2022/03/21 04:50:16;;;;;;;50.90;30.17;;;4.40;49.80;;;;;;5073527;28;20205;-68
2022/03/21 04:52:43;;;;;;;46.50;28.57;;;4.40;49.80;;;;;;5075821;28;20645;-68
2022/03/21 04:55:10;;;;;;;51.67;28.93;;;4.40;49.80;;;;;;5069074;28;20237;-68
2022/03/21 04:57:37;;;;;;;49.37;28.30;;;4.40;49.80;;;;;;5074277;28;20205;-67
2022/03/21 05:00:07;;;;;;;49.83;27.33;;;4.40;49.70;;;;;;5074694;28;20296;-68
2022/03/21 05:02:34;;;;;;;48.43;27.20;;;4.40;49.60;;;;;;5064687;28;20288;-67
2022/03/21 05:05:01;;;;;;;51.33;26.27;;;4.50;49.60;;;;;;5075613;28;20235;-69
2022/03/21 05:07:29;;;;;;;47.60;25.73;;;4.50;49.60;;;;;;5073262;28;20201;-68
2022/03/21 05:09:56;;;;;;;45.23;26.40;;;4.60;49.40;;;;;;5065312;28;20623;-68
2022/03/21 05:12:24;;;;;;;49.13;26.67;;;4.60;49.30;;;;;;5075203;28;20231;-69
2022/03/21 05:14:51;;;;;;;49.47;26.90;;;4.60;49.30;;;;;;5075329;28;20266;-69
2022/03/21 05:17:19;;;;;;;55.23;29.50;;;4.60;49.20;;;;;;5074791;28;20201;-68
2022/03/21 05:19:46;;;;;;;55.80;28.40;;;4.60;49.30;;;;;;5076058;28;20289;-69
2022/03/21 05:22:13;;;;;;;51.67;28.00;;;4.70;49.30;;;;;;5074437;28;20320;-69
2022/03/21 05:35:54;;;;;;;58.37;31.07;;;4.80;49.40;;;;;;5074492;28;20247;-68
2022/03/21 05:38:23;;;;;;;58.90;31.50;;;4.90;49.40;;;;;;5073557;28;20293;-68
2022/03/21 05:40:50;;;;;;;57.67;30.70;;;4.90;49.30;;;;;;5074394;28;20281;-67
2022/03/21 05:43:17;;;;;;;54.50;30.47;;;4.90;49.30;;;;;;5075334;28;20259;-68
2022/03/21 05:45:44;;;;;;;42.57;24.80;;;5.10;49.40;;;;;;5074286;28;20251;-68
2022/03/21 05:50:56;;;;;;;45.30;25.67;;;5.30;49.00;;;;;;5075704;28;20203;-68
2022/03/21 05:53:23;;;;;;;47.50;27.53;;;5.10;48.40;;;;;;5061852;28;20651;-67
2022/03/21 05:55:50;;;;;;;47.53;26.50;;;5.50;48.50;;;;;;5069716;28;20296;-68
2022/03/21 05:58:17;;;;;;;46.30;26.07;;;5.70;48.50;;;;;;5073619;28;20645;-67
2022/03/21 06:00:44;;;;;;;47.13;26.07;;;5.80;48.50;;;;;;5072276;28;20221;-67
2022/03/21 06:03:12;;;;;;;51.00;25.67;;;5.90;48.10;;;;;;5062244;28;20308;-66
2022/03/21 06:05:40;;;;;;;48.83;25.47;;;6.00;47.90;;;;;;5072484;28;20319;-68
2022/03/21 06:08:08;;;;;;;48.40;26.30;;;6.00;47.60;;;;;;5068170;28;20201;-67
2022/03/21 06:10:36;;;;;;;44.10;25.27;;;6.00;47.40;;;;;;5072320;28;20205;-67
2022/03/21 06:13:05;;;;;;;55.27;28.47;;;6.10;47.30;;;;;;5074407;28;20304;-68
2022/03/21 06:15:32;;;;;;;47.33;26.30;;;6.10;47.20;;;;;;5069607;28;20215;-67
2022/03/21 06:17:59;;;;;;;48.77;26.60;;;6.10;47.30;;;;;;5072838;28;20236;-68
2022/03/21 06:20:28;;;;;;;45.87;26.53;;;6.30;47.50;;;;;;5074325;28;20229;-66
2022/03/21 06:22:57;;;;;;;47.00;26.60;;;6.60;47.20;;;;;;5073303;28;20201;-68
2022/03/21 06:25:24;;;;;;;52.77;28.57;;;6.70;46.70;;;;;;5072621;28;20354;-67
2022/03/21 06:27:51;;;;;;;48.23;27.37;;;6.80;46.70;;;;;;5074066;28;20197;-67
2022/03/21 06:30:18;;;;;;;50.00;26.63;;;6.80;46.60;;;;;;5074361;28;20292;-68
2022/03/21 06:32:45;;;;;;;42.27;24.83;;;6.90;46.70;;;;;;5073047;28;20291;-67
2022/03/21 06:35:12;;;;;;;49.37;25.00;;;6.90;46.60;;;;;;5074313;28;20208;-68
2022/03/21 06:37:41;;;;;;;45.47;24.33;;;7.00;46.50;;;;;;5060999;28;20205;-68
2022/03/21 06:40:10;;;;;;;46.50;24.80;;;7.10;46.40;;;;;;5061912;28;20210;-69
2022/03/21 06:42:38;;;;;;;45.20;23.90;;;7.30;46.30;;;;;;5054441;28;20244;-68
2022/03/21 06:45:06;;;;;;;40.83;23.30;;;7.70;46.10;;;;;;5056158;28;20312;-73
2022/03/21 06:47:33;;;;;;;43.27;21.63;;;7.90;45.10;;;;;;5067677;28;20330;-73
2022/03/21 06:50:00;;;;;;;37.33;21.67;;;8.00;44.50;;;;;;5058759;28;20245;-72
2022/03/21 06:52:27;;;;;;;35.37;20.73;;;8.10;44.20;;;;;;5064055;28;20197;-72
2022/03/21 06:54:55;;;;;;;34.80;20.00;;;8.10;43.90;;;;;;5072317;28;20209;-69
2022/03/21 06:57:22;;;;;;;39.60;21.40;;;8.10;43.80;;;;;;5064832;28;20293;-68
2022/03/21 06:59:49;;;;;;;32.67;19.60;;;8.20;43.90;;;;;;5061879;28;20647;-69
2022/03/21 07:02:17;;;;;;;36.77;19.33;;;8.30;43.80;;;;;;5073035;28;20231;-68
2022/03/21 07:04:44;;;;;;;39.73;20.93;;;8.40;43.50;;;;;;5068705;28;20789;-69
2022/03/21 07:07:11;;;;;;;42.50;21.57;;;8.50;43.40;;;;;;5067658;28;20766;-69
2022/03/21 07:09:37;;;;;;;37.47;20.93;;;8.60;43.20;;;;;;5059825;28;20209;-68
2022/03/21 07:12:07;;;;;;;32.73;21.10;;;8.60;42.90;;;;;;5069057;28;20258;-69
2022/03/21 07:14:34;;;;;;;35.83;21.50;;;8.70;42.80;;;;;;5065360;28;20549;-69
2022/03/21 07:17:01;;;;;;;38.53;20.67;;;8.90;42.70;;;;;;5062076;28;20327;-69
2022/03/21 07:19:28;;;;;;;33.83;19.60;;;8.80;42.40;;;;;;5069207;28;20234;-68
2022/03/21 07:21:55;;;;;;;31.13;18.13;;;9.00;42.20;;;;;;5060924;28;20232;-68
2022/03/21 07:24:22;;;;;;;24.77;15.83;;;9.10;42.50;;;;;;5066924;28;20222;-69
2022/03/21 07:26:48;;;;;;;29.17;16.20;;;9.20;41.40;;;;;;5066721;28;20201;-69
2022/03/21 07:29:17;;;;;;;29.33;16.73;;;9.30;41.70;;;;;;5063665;28;20213;-69
2022/03/21 07:31:44;;;;;;;28.13;14.83;;;9.50;40.90;;;;;;5067240;28;20229;-67
2022/03/21 07:34:12;;;;;;;24.23;15.63;;;9.70;40.60;;;;;;5069197;28;20202;-69
2022/03/21 07:36:39;;;;;;;25.70;15.03;;;9.90;40.30;;;;;;5063907;28;20225;-68
2022/03/21 07:39:06;;;;;;;25.37;15.90;;;10.00;39.00;;;;;;5064232;28;20215;-68
2022/03/21 07:41:35;;;;;;;29.33;16.10;;;10.20;38.30;;;;;;5070811;28;20719;-69
2022/03/21 07:44:02;;;;;;;20.10;13.60;;;10.30;38.00;;;;;;5063688;28;20233;-70
2022/03/21 07:49:15;;;;;;;23.57;14.33;;;10.70;37.40;;;;;;5067651;28;20193;-70
2022/03/21 07:51:43;;;;;;;19.70;13.40;;;10.80;37.10;;;;;;5074200;28;20677;-69
2022/03/21 07:54:11;;;;;;;24.17;14.03;;;10.90;36.80;;;;;;5069530;28;20194;-70
2022/03/21 07:56:41;;;;;;;20.73;12.97;;;11.00;36.50;;;;;;5071555;28;20205;-71
2022/03/21 07:59:08;;;;;;;17.90;11.40;;;11.20;36.50;;;;;;5068285;28;20221;-70
2022/03/21 08:01:37;;;;;;;15.53;11.20;;;11.30;36.30;;;;;;5067921;28;20206;-73
2022/03/21 08:04:04;;;;;;;15.50;10.10;;;11.40;35.80;;;;;;5060952;28;20201;-71
2022/03/21 08:06:32;;;;;;;21.90;11.50;;;11.50;35.20;;;;;;5075653;28;20570;-73
2022/03/21 08:08:59;;;;;;;15.17;10.20;;;11.60;34.90;;;;;;5075620;28;20214;-70
2022/03/21 08:11:26;;;;;;;19.20;11.67;;;11.70;34.80;;;;;;5078548;28;20217;-71
2022/03/21 08:13:53;;;;;;;19.30;12.07;;;11.90;34.80;;;;;;5077432;28;20292;-72
2022/03/21 08:16:21;;;;;;;20.43;12.10;;;11.90;34.50;;;;;;5070869;28;20288;-69
2022/03/21 08:18:51;;;;;;;16.53;10.67;;;12.00;34.60;;;;;;5062029;28;20296;-72
2022/03/21 08:21:19;;;;;;;18.70;11.03;;;12.10;34.50;;;;;;5074578;28;20727;-70
2022/03/21 08:23:47;;;;;;;15.87;10.23;;;12.20;34.20;;;;;;5074866;28;20225;-70
2022/03/21 08:26:16;;;;;;;16.27;9.97;;;12.30;33.90;;;;;;5074729;28;20267;-70
2022/03/21 08:28:45;;;;;;;15.63;10.80;;;12.30;34.30;;;;;;5070776;28;20262;-72
2022/03/21 08:31:13;;;;;;;15.97;10.60;;;12.50;33.60;;;;;;5077640;28;20217;-70
2022/03/21 08:33:40;;;;;;;17.73;10.40;;;12.70;33.50;;;;;;5074878;28;20214;-72
2022/03/21 08:36:08;;;;;;;15.57;10.90;;;12.80;33.30;;;;;;5077374;28;20259;-73
2022/03/21 08:38:35;;;;;;;14.70;9.97;;;13.00;33.10;;;;;;5061471;28;20206;-72
2022/03/21 08:41:02;;;;;;;13.87;9.90;;;13.00;32.80;;;;;;5063580;28;20206;-69
2022/03/21 08:43:30;;;;;;;13.67;9.47;;;13.20;32.80;;;;;;5059418;28;20253;-68
2022/03/21 08:45:57;;;;;;;14.37;10.27;;;13.30;32.50;;;;;;5064073;28;20313;-70
2022/03/21 08:49:23;;;;;;;17.05;12.20;;;13.40;32.20;;;;;;5059727;28;20828;-73
2022/03/21 08:51:14;;;;;;;15.57;12.10;;;13.40;32.50;;;;;;5069103;28;20958;-68
2022/03/21 08:53:41;;;;;;;18.80;11.63;;;13.60;32.50;;;;;;5070087;28;20415;-69
2022/03/21 08:56:08;;;;;;;17.63;11.43;;;13.80;32.30;;;;;;5068681;28;20201;-68
2022/03/21 08:58:35;;;;;;;19.73;11.20;;;14.00;32.60;;;;;;5062153;28;20252;-67
2022/03/21 09:01:02;;;;;;;14.27;9.70;;;14.00;33.00;;;;;;5073722;28;20213;-68
2022/03/21 09:03:29;;;;;;;16.93;12.90;;;14.20;32.10;;;;;;5070841;28;20452;-69
2022/03/21 09:05:56;;;;;;;21.43;12.93;;;14.20;31.50;;;;;;5066187;28;20220;-70
2022/03/21 09:08:24;;;;;;;21.10;13.03;;;14.30;32.20;;;;;;5078426;28;20259;-74
2022/03/21 09:10:52;;;;;;;19.70;11.97;;;14.40;32.30;;;;;;5065172;28;20201;-71
2022/03/21 09:13:19;;;;;;;17.53;11.27;;;14.60;32.40;;;;;;5067831;28;20212;-70
2022/03/21 09:15:46;;;;;;;20.27;12.93;;;14.90;32.00;;;;;;5064939;28;20674;-71
2022/03/21 09:18:13;;;;;;;21.87;12.73;;;15.10;32.00;;;;;;5068072;28;20716;-71
2022/03/21 09:20:41;;;;;;;19.63;13.10;;;15.40;32.90;;;;;;5072523;28;20245;-72
2022/03/21 09:23:08;;;;;;;22.10;13.57;;;16.30;32.10;;;;;;5072719;28;20212;-74
2022/03/21 09:25:36;;;;;;;29.50;17.53;;;18.20;30.50;;;;;;5074023;28;20456;-71
2022/03/21 09:28:03;;;;;;;20.73;14.48;;;21.50;29.80;;;;;;5074774;28;20220;-72
2022/03/21 09:30:30;;;;;;;23.55;15.85;;;25.40;27.00;;;;;;5071673;28;20292;-70
2022/03/21 09:32:57;;;;;;;19.05;13.48;;;28.60;24.00;;;;;;5075077;28;20209;-72
2022/03/21 09:35:24;;;;;;;20.42;13.30;;;30.90;22.70;;;;;;5074251;28;20653;-72
2022/03/21 09:37:51;;;;;;;20.10;13.43;;;31.90;21.20;;;;;;5063349;28;20198;-72
2022/03/21 09:40:20;;;;;;;15.18;13.05;;;32.50;20.60;;;;;;5073255;28;20651;-71
2022/03/21 09:42:48;;;;;;;19.35;13.63;;;33.60;20.50;;;;;;5068232;28;20294;-73
2022/03/21 09:45:15;;;;;;;17.27;13.57;;;35.40;19.50;;;;;;5062492;28;20285;-72
2022/03/21 09:50:33;;;;;;;16.98;13.27;;;37.20;18.40;;;;;;5062642;28;20775;-72
2022/03/21 09:53:01;;;;;;;18.50;11.63;;;37.20;18.00;;;;;;5068691;28;20201;-71
2022/03/21 09:55:29;;;;;;;16.98;12.80;;;37.10;18.00;;;;;;5067151;28;20198;-74
2022/03/21 09:57:58;;;;;;;15.20;12.98;;;37.70;17.90;;;;;;5059594;28;20712;-74
2022/03/21 10:00:26;;;;;;;15.43;11.60;;;38.50;17.70;;;;;;5071568;28;20209;-74
2022/03/21 10:02:53;;;;;;;14.85;12.45;;;39.00;17.40;;;;;;5072441;28;20300;-74
2022/03/21 10:05:38;;;;;;;14.63;11.38;;;39.10;17.10;;;;;;5075108;28;20232;-74
2022/03/21 10:08:17;;;;;;;14.50;11.85;;;39.60;17.00;;;;;;5076991;28;20258;-73
2022/03/21 10:11:02;;;;;;;16.88;12.07;;;40.10;16.70;;;;;;5073311;28;20610;-70
2022/03/21 10:13:32;;;;;;;14.07;12.07;;;40.30;16.60;;;;;;5075069;28;20645;-69
2022/03/21 10:16:12;;;;;;;16.65;12.32;;;40.90;16.50;;;;;;5072909;28;20525;-71
2022/03/21 10:18:40;;;;;;;14.48;11.60;;;41.80;16.10;;;;;;5067943;28;20250;-73
2022/03/21 10:21:11;;;;;;;14.13;12.52;;;41.60;16.00;;;;;;5076619;28;20614;-73
2022/03/21 10:23:38;;;;;;;15.57;11.57;;;40.80;15.70;;;;;;5065521;28;20205;-73
2022/03/21 10:26:25;;;;;;;13.68;11.55;;;39.80;15.80;;;;;;5073291;28;20283;-72
2022/03/21 10:28:55;;;;;;;17.55;11.55;;;38.70;16.40;;;;;;5066913;28;20201;-71
2022/03/21 10:31:37;;;;;;;18.70;11.73;;;38.90;16.50;;;;;;5074577;28;20227;-71
2022/03/21 10:34:07;;;;;;;14.40;11.40;;;39.80;16.40;;;;;;5070934;28;20209;-70
2022/03/21 10:36:34;;;;;;;20.15;11.48;;;41.60;16.00;;;;;;5075716;28;20306;-72
2022/03/21 10:39:09;;;;;;;16.90;11.38;;;42.90;15.70;;;;;;5068537;28;20201;-72
2022/03/21 10:41:37;;;;;;;13.15;11.82;;;43.40;15.70;;;;;;5075453;28;20277;-72
2022/03/21 10:44:07;;;;;;;14.00;10.73;;;43.80;15.40;;;;;;5064855;28;20234;-73
2022/03/21 10:46:35;;;;;;;13.07;10.93;;;44.50;15.30;;;;;;5073635;28;20224;-70
2022/03/21 10:49:03;;;;;;;11.43;10.10;;;44.70;15.20;;;;;;5073176;28;20213;-73
2022/03/21 10:51:49;;;;;;;11.32;10.02;;;45.00;14.90;;;;;;5076429;28;20229;-74
2022/03/21 10:54:38;;;;;;;13.63;10.65;;;45.10;14.90;;;;;;5075023;28;20231;-72
2022/03/21 10:57:07;;;;;;;11.65;10.48;;;45.60;14.80;;;;;;5075832;28;20208;-72
2022/03/21 10:59:36;;;;;;;12.30;11.05;;;44.80;14.70;;;;;;5074402;28;20243;-71
2022/03/21 11:02:14;;;;;;;11.77;10.50;;;43.00;15.10;;;;;;5075096;28;20344;-70
2022/03/21 11:04:44;;;;;;;12.90;9.55;;;42.10;15.70;;;;;;5070727;28;20208;-71
2022/03/21 11:07:14;;;;;;;12.10;10.55;;;41.50;16.00;;;;;;5069282;28;20544;-71
2022/03/21 11:09:44;;;;;;;11.52;10.13;;;40.80;16.00;;;;;;5075972;28;20201;-70
2022/03/21 11:12:11;;;;;;;13.52;10.50;;;41.10;15.70;;;;;;5075167;28;20271;-71
2022/03/21 11:14:41;;;;;;;10.98;9.88;;;41.50;15.50;;;;;;5069423;28;20236;-73
2022/03/21 11:17:10;;;;;;;11.55;9.38;;;42.00;15.30;;;;;;5065246;28;20215;-72
2022/03/21 11:19:36;;;;;;;14.30;9.73;;;41.10;15.80;;;;;;5076265;28;20241;-71
2022/03/21 11:22:04;;;;;;;11.73;9.15;;;39.90;16.10;;;;;;5070953;28;20476;-69
2022/03/21 11:24:34;;;;;;;11.73;9.00;;;38.60;15.80;;;;;;5066687;28;20257;-68
2022/03/21 11:27:15;;;;;;;11.73;8.95;;;37.30;16.50;;;;;;5077476;28;20310;-69
2022/03/21 11:29:56;;;;;;;12.23;9.98;;;35.70;16.50;;;;;;5057952;28;20255;-70
2022/03/21 11:32:33;;;;;;;11.30;9.35;;;34.40;17.20;;;;;;5057591;28;20205;-70
2022/03/21 11:35:10;;;;;;;10.65;9.10;;;33.50;18.60;;;;;;5073979;28;20213;-72
2022/03/21 11:37:37;;;;;;;11.18;9.13;;;33.40;18.80;;;;;;5074861;28;20264;-73
2022/03/21 11:40:30;;;;;;;12.75;10.15;;;33.70;18.10;;;;;;5064744;28;20258;-70
2022/03/21 11:43:29;;;;;;;14.40;9.55;;;33.90;18.20;;;;;;5073915;28;20271;-69
2022/03/21 11:45:57;;;;;;;12.38;9.95;;;34.20;18.00;;;;;;5079111;28;20213;-74
2022/03/21 11:48:35;;;;;;;11.43;9.50;;;34.20;18.00;;;;;;5073165;28;20210;-73
2022/03/21 11:51:24;;;;;;;10.55;8.98;;;33.60;18.00;;;;;;5068100;28;20209;-76
2022/03/21 11:53:53;;;;;;;13.70;9.50;;;32.70;17.60;;;;;;5075608;28;20887;-77
2022/03/21 11:56:54;;;;;;;12.95;10.27;;;31.10;18.60;;;;;;5076193;28;20202;-73
2022/03/21 11:59:47;;;;;;;14.32;9.93;;;29.60;19.20;;;;;;5067204;28;20205;-74
2022/03/21 12:02:52;;;;;;;14.75;9.52;;;28.10;20.00;;;;;;5075887;28;20673;-74
2022/03/21 12:05:52;;;;;;;13.60;9.93;;;27.10;20.20;;;;;;5073898;28;20248;-75
2022/03/21 12:08:35;;;;;;;12.23;9.55;;;26.50;20.70;;;;;;5067019;28;20693;-73
2022/03/21 12:11:02;;;;;;;15.70;10.10;;;26.70;21.80;;;;;;5072574;28;20312;-72
2022/03/21 12:13:47;;;;;;;12.90;9.00;;;26.80;21.70;;;;;;5077371;28;20209;-73
2022/03/21 12:16:19;;;;;;;13.23;9.63;;;27.00;21.60;;;;;;5072924;28;20213;-73
2022/03/21 12:19:02;;;;;;;12.40;9.18;;;26.70;21.70;;;;;;5067669;28;20206;-75
2022/03/21 12:21:29;;;;;;;12.63;8.93;;;26.30;22.20;;;;;;5074610;28;20258;-73
2022/03/21 12:24:17;;;;;;;11.63;9.40;;;25.80;21.80;;;;;;5069594;28;20220;-73
2022/03/21 12:26:52;;;;;;;11.85;9.55;;;25.40;22.10;;;;;;5071073;28;20315;-72
2022/03/21 12:29:36;;;;;;;12.55;9.48;;;25.10;22.40;;;;;;5069993;28;20204;-75
2022/03/21 12:32:26;;;;;;;12.30;9.68;;;25.00;23.30;;;;;;5067828;28;20611;-72
2022/03/21 12:34:54;;;;;;;14.23;9.32;;;25.30;22.80;;;;;;5059147;28;20254;-73
2022/03/21 12:37:40;;;;;;;13.95;9.75;;;25.40;22.60;;;;;;5061759;28;20280;-72
2022/03/21 12:40:16;;;;;;;14.73;9.77;;;25.50;22.30;;;;;;5061700;28;20254;-71
2022/03/21 12:42:45;;;;;;;23.48;10.65;;;25.70;22.20;;;;;;5073348;28;20240;-72
2022/03/21 12:45:18;;;;;;;18.90;10.18;;;25.30;22.00;;;;;;5072004;28;20611;-72
2022/03/21 12:47:46;;;;;;;15.70;10.63;;;24.80;22.10;;;;;;5070579;28;20267;-70
2022/03/21 12:50:20;;;;;;;22.05;10.85;;;24.00;22.20;;;;;;5071389;28;20201;-71
2022/03/21 12:52:54;;;;;;;17.42;10.25;;;23.40;22.80;;;;;;5062023;28;20228;-71
2022/03/21 12:55:23;;;;;;;18.25;9.50;;;22.80;23.30;;;;;;5057198;28;20194;-72
2022/03/21 12:57:57;;;;;;;17.50;9.75;;;22.40;23.40;;;;;;5062402;28;20192;-71
2022/03/21 13:00:27;;;;;;;21.88;10.93;;;22.00;23.60;;;;;;5058039;28;20236;-74
2022/03/21 13:02:56;;;;;;;13.82;9.75;;;21.60;23.70;;;;;;5063711;28;20617;-74
2022/03/21 13:10:56;;;;;;;11.57;9.65;;;21.40;25.10;;;;;;5071391;28;20201;-73
2022/03/21 13:13:24;;;;;;;20.95;10.32;;;21.60;24.60;;;;;;5075689;28;20218;-71
2022/03/21 13:16:06;;;;;;;14.43;9.90;;;21.40;24.30;;;;;;5070317;28;20205;-71